createdAt,value
2018-11-27T00:00:42.385Z,-1.01
2018-11-27T00:03:13.784Z,-0.98
2018-11-27T00:05:43.876Z,-0.94
2018-11-27T00:08:17.118Z,-1.03
2018-11-27T00:10:47.412Z,-1.09
2018-11-27T00:13:17.361Z,-1.11
2018-11-27T00:15:48.032Z,-1.20
2018-11-27T00:18:18.123Z,-1.18
2018-11-27T00:20:48.458Z,-1.12
2018-11-27T00:23:18.560Z,-1.15
2018-11-27T00:25:48.818Z,-1.08
2018-11-27T00:28:19.113Z,-1.08
2018-11-27T00:30:49.359Z,-1.07
2018-11-27T00:33:19.631Z,-1.12
2018-11-27T00:35:50.015Z,-1.17
2018-11-27T00:38:20.183Z,-1.12
2018-11-27T00:40:50.465Z,-1.06
2018-11-27T00:46:01.027Z,-1.19
2018-11-27T00:48:31.317Z,-1.18
2018-11-27T00:51:01.677Z,-1.18
2018-11-27T00:53:31.897Z,-1.16
2018-11-27T00:56:02.903Z,-1.13
2018-11-27T00:58:33.142Z,-1.21
2018-11-27T01:01:03.432Z,-1.09
2018-11-27T01:03:34.660Z,-1.02
2018-11-27T01:08:41.568Z,-1.04
2018-11-27T01:11:11.697Z,-1.12
2018-11-27T01:13:42.714Z,-1.04
2018-11-27T01:16:13.553Z,-1.08
2018-11-27T01:18:43.600Z,-1.12
2018-11-27T01:23:51.411Z,-1.20
2018-11-27T01:26:22.780Z,-1.15
2018-11-27T01:28:53.467Z,-1.16
2018-11-27T01:31:23.886Z,-1.17
2018-11-27T01:33:54.977Z,-1.17
2018-11-27T01:36:25.392Z,-1.18
2018-11-27T01:38:55.746Z,-1.24
2018-11-27T01:41:26.902Z,-1.19
2018-11-27T01:43:57.145Z,-1.13
2018-11-27T01:46:27.340Z,-1.14
2018-11-27T01:48:57.535Z,-1.13
2018-11-27T01:51:27.717Z,-1.17
2018-11-27T01:53:57.930Z,-1.17
2018-11-27T01:56:28.491Z,-1.21
2018-11-27T01:58:58.670Z,-1.19
2018-11-27T02:01:29.309Z,-1.20
2018-11-27T02:04:00.008Z,-1.21
2018-11-27T02:06:30.383Z,-1.23
2018-11-27T02:09:00.802Z,-1.21
2018-11-27T02:11:31.333Z,-1.29
2018-11-27T02:14:01.508Z,-1.25
2018-11-27T02:16:31.729Z,-1.22
2018-11-27T02:19:03.483Z,-1.24
2018-11-27T02:21:33.679Z,-1.25
2018-11-27T02:24:04.010Z,-1.29
2018-11-27T02:26:34.122Z,-1.33
2018-11-27T02:29:06.943Z,-1.28
2018-11-27T02:31:37.867Z,-1.33
2018-11-27T02:34:08.100Z,-1.30
2018-11-27T02:36:38.885Z,-1.38
2018-11-27T02:39:09.366Z,-1.33
2018-11-27T02:41:39.968Z,-1.26
2018-11-27T02:44:10.619Z,-1.33
2018-11-27T02:46:41.632Z,-1.31
2018-11-27T02:49:12.320Z,-1.31
2018-11-27T02:51:43.149Z,-1.31
2018-11-27T02:58:02.054Z,-1.24
2018-11-27T03:00:33.097Z,-1.24
2018-11-27T03:03:03.389Z,-1.27
2018-11-27T03:05:36.138Z,-1.25
2018-11-27T03:08:06.387Z,-1.30
2018-11-27T03:10:36.608Z,-1.27
2018-11-27T03:13:07.064Z,-1.20
2018-11-27T03:15:37.379Z,-1.28
2018-11-27T03:18:07.972Z,-1.25
2018-11-27T03:20:38.185Z,-1.32
2018-11-27T03:23:08.499Z,-1.21
2018-11-27T03:25:38.479Z,-1.24
2018-11-27T03:28:08.532Z,-1.26
2018-11-27T03:30:40.037Z,-1.20
2018-11-27T03:33:10.688Z,-1.21
2018-11-27T03:35:41.347Z,-1.19
2018-11-27T03:38:12.251Z,-1.15
2018-11-27T03:40:42.616Z,-1.15
2018-11-27T03:43:12.690Z,-1.15
2018-11-27T03:45:42.769Z,-1.16
2018-11-27T03:48:12.864Z,-1.13
2018-11-27T03:50:43.078Z,-1.10
2018-11-27T03:53:13.870Z,-1.12
2018-11-27T03:55:44.061Z,-1.12
2018-11-27T03:58:13.995Z,-1.06
2018-11-27T04:00:44.315Z,-1.06
2018-11-27T04:03:14.621Z,-1.10
2018-11-27T04:05:44.811Z,-1.04
2018-11-27T04:08:14.974Z,-1.04
2018-11-27T04:10:45.199Z,-1.12
2018-11-27T04:13:15.505Z,-1.03
2018-11-27T04:15:45.838Z,-1.15
2018-11-27T04:18:16.034Z,-1.17
2018-11-27T04:20:46.674Z,-1.12
2018-11-27T04:23:16.767Z,-1.17
2018-11-27T04:25:47.278Z,-1.14
2018-11-27T04:28:17.593Z,-1.12
2018-11-27T04:30:48.539Z,-1.11
2018-11-27T04:33:18.870Z,-1.13
2018-11-27T04:35:49.679Z,-1.08
2018-11-27T04:38:20.115Z,-1.13
2018-11-27T04:40:50.485Z,-1.08
2018-11-27T04:43:20.673Z,-1.08
2018-11-27T04:45:51.193Z,-1.11
2018-11-27T04:48:21.660Z,-1.04
2018-11-27T04:50:52.097Z,-1.15
2018-11-27T04:53:22.913Z,-1.17
2018-11-27T04:55:53.691Z,-1.24
2018-11-27T04:58:24.153Z,-1.30
2018-11-27T05:00:54.444Z,-1.25
2018-11-27T05:03:24.502Z,-1.31
2018-11-27T05:05:54.575Z,-1.21
2018-11-27T05:08:24.759Z,-1.20
2018-11-27T05:10:55.624Z,-1.21
2018-11-27T05:13:28.246Z,-1.21
2018-11-27T05:15:58.661Z,-1.21
2018-11-27T05:18:28.945Z,-1.18
2018-11-27T05:20:59.401Z,-1.18
2018-11-27T05:23:29.839Z,-1.13
2018-11-27T05:26:00.021Z,-1.15
2018-11-27T05:28:30.108Z,-1.13
2018-11-27T05:31:00.280Z,-1.14
2018-11-27T05:33:30.910Z,-1.14
2018-11-27T05:36:02.577Z,-1.16
2018-11-27T05:38:33.585Z,-1.14
2018-11-27T05:41:04.175Z,-1.12
2018-11-27T05:43:34.539Z,-1.17
2018-11-27T05:46:06.239Z,-1.16
2018-11-27T05:48:36.584Z,-1.21
2018-11-27T05:51:07.756Z,-1.17
2018-11-27T05:53:38.156Z,-1.32
2018-11-27T05:56:08.383Z,-1.42
2018-11-27T05:58:38.615Z,-1.43
2018-11-27T06:01:08.857Z,-1.43
2018-11-27T06:03:39.351Z,-1.42
2018-11-27T06:06:09.449Z,-1.42
2018-11-27T06:08:39.718Z,-1.55
2018-11-27T06:11:09.954Z,-1.57
2018-11-27T06:13:40.888Z,-1.50
2018-11-27T06:16:11.011Z,-1.51
2018-11-27T06:18:41.431Z,-1.57
2018-11-27T06:21:11.655Z,-1.46
2018-11-27T06:23:42.184Z,-1.53
2018-11-27T06:26:12.450Z,-1.54
2018-11-27T06:28:42.462Z,-1.50
2018-11-27T06:31:12.794Z,-1.50
2018-11-27T06:33:43.272Z,-1.48
2018-11-27T06:36:13.314Z,-1.55
2018-11-27T06:38:43.649Z,-1.58
2018-11-27T06:41:13.751Z,-1.65
2018-11-27T06:43:43.916Z,-1.60
2018-11-27T06:46:13.982Z,-1.62
2018-11-27T06:48:44.166Z,-1.59
2018-11-27T06:51:14.194Z,-1.59
2018-11-27T06:53:44.178Z,-1.61
2018-11-27T06:56:14.431Z,-1.59
2018-11-27T06:58:45.482Z,-1.58
2018-11-27T07:01:15.630Z,-1.58
2018-11-27T07:03:46.346Z,-1.55
2018-11-27T07:06:16.438Z,-1.55
2018-11-27T07:08:47.776Z,-1.56
2018-11-27T07:11:17.704Z,-1.58
2018-11-27T07:13:47.775Z,-1.57
2018-11-27T07:16:17.890Z,-1.55
2018-11-27T07:18:47.909Z,-1.56
2018-11-27T07:21:17.942Z,-1.56
2018-11-27T07:23:48.388Z,-1.60
2018-11-27T07:26:18.989Z,-1.62
2018-11-27T07:28:52.874Z,-1.57
2018-11-27T07:31:23.077Z,-1.59
2018-11-27T07:33:53.470Z,-1.63
2018-11-27T07:36:27.336Z,-1.67
2018-11-27T07:38:58.223Z,-1.74
2018-11-27T07:41:28.752Z,-1.75
2018-11-27T07:43:58.778Z,-1.78
2018-11-27T07:46:28.692Z,-1.81
2018-11-27T07:48:59.214Z,-1.77
2018-11-27T07:51:30.070Z,-1.87
2018-11-27T07:54:04.219Z,-1.77
2018-11-27T07:56:34.101Z,-1.92
2018-11-27T07:59:04.468Z,-1.91
2018-11-27T08:01:34.653Z,-1.82
2018-11-27T08:06:44.656Z,-1.77
2018-11-27T08:09:14.732Z,-1.75
2018-11-27T08:11:45.246Z,-1.72
2018-11-27T08:14:15.591Z,-1.61
2018-11-27T08:16:45.866Z,-1.69
2018-11-27T08:19:16.478Z,-1.72
2018-11-27T08:21:46.774Z,-1.68
2018-11-27T08:24:16.865Z,-1.66
2018-11-27T08:26:46.960Z,-1.60
2018-11-27T08:29:17.114Z,-1.64
2018-11-27T08:31:47.200Z,-1.66
2018-11-27T08:34:17.125Z,-1.63
2018-11-27T08:36:47.499Z,-1.54
2018-11-27T08:39:17.747Z,-1.41
2018-11-27T08:41:47.972Z,-1.37
2018-11-27T08:44:18.232Z,-1.35
2018-11-27T08:46:48.481Z,-1.46
2018-11-27T08:49:18.553Z,-1.51
2018-11-27T08:51:48.725Z,-1.62
2018-11-27T08:54:18.834Z,-1.58
2018-11-27T08:56:48.832Z,-1.56
2018-11-27T08:59:18.772Z,-1.42
2018-11-27T09:01:48.940Z,-1.42
2018-11-27T09:04:19.008Z,-1.36
2018-11-27T09:06:49.463Z,-1.45
2018-11-27T09:09:20.183Z,-1.38
2018-11-27T09:11:50.853Z,-1.35
2018-11-27T09:14:20.935Z,-1.49
2018-11-27T09:16:51.509Z,-1.36
2018-11-27T09:19:21.962Z,-1.32
2018-11-27T09:21:52.163Z,-1.25
2018-11-27T09:24:22.822Z,-1.37
2018-11-27T09:26:52.938Z,-1.39
2018-11-27T09:29:23.119Z,-1.42
2018-11-27T09:31:53.079Z,-1.37
2018-11-27T09:34:23.510Z,-1.39
2018-11-27T09:36:53.609Z,-1.33
2018-11-27T09:39:23.609Z,-1.31
2018-11-27T09:41:53.805Z,-1.36
2018-11-27T09:44:23.845Z,-1.36
2018-11-27T09:46:54.329Z,-1.35
2018-11-27T09:49:24.524Z,-1.43
2018-11-27T09:51:54.560Z,-1.35
2018-11-27T09:54:24.968Z,-1.31
2018-11-27T09:56:54.960Z,-1.30
2018-11-27T09:59:24.987Z,-1.18
2018-11-27T10:01:54.910Z,-1.15
2018-11-27T10:04:25.047Z,-1.16
2018-11-27T10:06:55.709Z,-1.12
2018-11-27T10:09:25.782Z,-1.09
2018-11-27T10:11:56.040Z,-0.97
2018-11-27T10:14:26.091Z,-0.98
2018-11-27T10:16:56.428Z,-0.97
2018-11-27T10:19:28.200Z,-0.87
2018-11-27T10:21:57.044Z,-0.73
2018-11-27T10:24:27.847Z,-0.74
2018-11-27T10:26:57.952Z,-0.89
2018-11-27T10:29:28.283Z,-0.72
2018-11-27T10:31:58.395Z,-0.57
2018-11-27T10:34:28.485Z,-0.52
2018-11-27T10:36:59.324Z,-0.47
2018-11-27T10:39:29.900Z,-0.48
2018-11-27T10:42:00.024Z,-0.39
2018-11-27T10:44:29.985Z,-0.36
2018-11-27T10:47:00.103Z,-0.27
2018-11-27T10:49:30.791Z,-0.27
2018-11-27T10:52:00.683Z,-0.12
2018-11-27T10:54:32.353Z,0.00
2018-11-27T10:57:02.350Z,-0.03
2018-11-27T10:59:32.666Z,-0.09
2018-11-27T11:02:07.954Z,-0.20
2018-11-27T11:04:38.743Z,-0.19
2018-11-27T11:07:08.793Z,-0.27
2018-11-27T11:09:39.272Z,-0.25
2018-11-27T11:12:10.019Z,-0.36
2018-11-27T11:14:40.209Z,-0.31
2018-11-27T11:17:10.546Z,-0.16
2018-11-27T11:19:41.480Z,-0.07
2018-11-27T11:22:11.757Z,-0.12
2018-11-27T11:24:42.066Z,-0.26
2018-11-27T11:27:12.113Z,-0.06
2018-11-27T11:29:43.275Z,-0.17
2018-11-27T11:32:13.287Z,-0.15
2018-11-27T11:34:43.281Z,-0.06
2018-11-27T11:37:13.384Z,-0.33
2018-11-27T11:39:43.442Z,-0.28
2018-11-27T11:42:14.049Z,-0.20
2018-11-27T11:44:44.242Z,0.00
2018-11-27T11:47:15.288Z,0.13
2018-11-27T11:49:46.109Z,0.47
2018-11-27T11:52:17.500Z,0.70
2018-11-27T11:54:47.653Z,0.99
2018-11-27T11:57:17.776Z,0.94
2018-11-27T11:59:47.876Z,0.92
2018-11-27T12:02:18.081Z,0.73
2018-11-27T12:04:48.075Z,0.75
2018-11-27T12:07:18.212Z,0.59
2018-11-27T12:09:48.249Z,0.41
2018-11-27T12:12:18.514Z,0.36
2018-11-27T12:14:48.888Z,0.30
2018-11-27T12:17:19.700Z,0.22
2018-11-27T12:19:49.636Z,0.30
2018-11-27T12:22:19.718Z,0.14
2018-11-27T12:24:49.942Z,0.05
2018-11-27T12:27:21.027Z,0.10
2018-11-27T12:29:51.157Z,0.13
2018-11-27T12:32:21.138Z,0.19
2018-11-27T12:34:51.142Z,0.07
2018-11-27T12:37:21.136Z,0.22
2018-11-27T12:39:51.620Z,0.27
2018-11-27T12:42:21.633Z,0.34
2018-11-27T12:44:51.857Z,0.42
2018-11-27T12:47:22.431Z,0.38
2018-11-27T12:49:52.846Z,0.36
2018-11-27T12:52:22.934Z,0.32
2018-11-27T12:54:53.675Z,0.47
2018-11-27T12:57:23.729Z,0.40
2018-11-27T12:59:54.088Z,0.52
2018-11-27T13:02:24.127Z,0.38
2018-11-27T13:04:54.101Z,0.32
2018-11-27T13:07:24.027Z,0.40
2018-11-27T13:09:54.222Z,0.33
2018-11-27T13:12:24.881Z,0.48
2018-11-27T13:14:54.842Z,0.18
2018-11-27T13:17:24.932Z,0.37
2018-11-27T13:19:55.093Z,0.43
2018-11-27T13:22:25.837Z,0.49
2018-11-27T13:24:56.037Z,0.51
2018-11-27T13:27:26.493Z,0.31
2018-11-27T13:29:56.779Z,0.28
2018-11-27T13:32:26.856Z,0.38
2018-11-27T13:34:57.010Z,0.39
2018-11-27T13:37:27.126Z,0.53
2018-11-27T13:39:57.147Z,0.44
2018-11-27T13:42:27.390Z,0.52
2018-11-27T13:44:57.489Z,0.59
2018-11-27T13:47:27.819Z,0.68
2018-11-27T13:49:57.935Z,0.63
2018-11-27T13:52:27.970Z,0.55
2018-11-27T13:54:58.280Z,0.50
2018-11-27T13:57:28.469Z,0.51
2018-11-27T13:59:58.523Z,0.52
2018-11-27T14:02:28.845Z,0.61
2018-11-27T14:04:58.920Z,0.66
2018-11-27T14:07:29.031Z,0.64
2018-11-27T14:09:59.200Z,0.58
2018-11-27T14:12:30.042Z,0.50
2018-11-27T14:15:00.121Z,0.49
2018-11-27T14:17:30.361Z,0.55
2018-11-27T14:20:00.722Z,0.49
2018-11-27T14:22:30.804Z,0.47
2018-11-27T14:25:00.852Z,0.45
2018-11-27T14:27:31.688Z,0.46
2018-11-27T14:30:01.937Z,0.49
2018-11-27T14:35:08.294Z,0.41
2018-11-27T14:37:39.003Z,0.34
2018-11-27T14:40:14.461Z,0.40
2018-11-27T14:42:44.757Z,0.35
2018-11-27T14:47:54.166Z,0.23
2018-11-27T14:50:24.252Z,0.22
2018-11-27T14:52:54.323Z,0.26
2018-11-27T14:55:28.851Z,0.28
2018-11-27T14:57:58.893Z,0.20
2018-11-27T15:00:29.140Z,0.24
2018-11-27T15:02:59.335Z,0.29
2018-11-27T15:05:32.846Z,0.25
2018-11-27T15:08:03.464Z,0.25
2018-11-27T15:10:33.620Z,0.24
2018-11-27T15:13:03.918Z,0.24
2018-11-27T15:15:33.813Z,0.18
2018-11-27T15:18:03.791Z,0.12
2018-11-27T15:20:34.015Z,0.14
2018-11-27T15:23:05.156Z,0.09
2018-11-27T15:25:36.570Z,0.18
2018-11-27T15:28:06.665Z,0.11
2018-11-27T15:30:38.120Z,0.09
2018-11-27T15:33:08.670Z,0.07
2018-11-27T15:35:39.140Z,0.00
2018-11-27T15:38:09.502Z,0.03
2018-11-27T15:40:40.106Z,0.00
2018-11-27T15:43:11.033Z,0.05
2018-11-27T15:45:41.897Z,-0.05
2018-11-27T15:48:12.779Z,0.00
2018-11-27T15:50:42.986Z,-0.02
2018-11-27T15:53:14.040Z,-0.05
2018-11-27T15:55:44.182Z,-0.06
2018-11-27T15:58:15.403Z,-0.03
2018-11-27T16:00:52.446Z,-0.03
2018-11-27T16:03:22.882Z,-0.03
2018-11-27T16:05:52.952Z,-0.06
2018-11-27T16:08:23.367Z,-0.12
2018-11-27T16:10:54.093Z,-0.02
2018-11-27T16:13:24.349Z,-0.18
2018-11-27T16:15:54.652Z,-0.12
2018-11-27T16:18:25.406Z,-0.14
2018-11-27T16:20:55.530Z,-0.14
2018-11-27T16:23:25.635Z,-0.20
2018-11-27T16:25:56.160Z,-0.31
2018-11-27T16:28:26.327Z,-0.23
2018-11-27T16:30:56.749Z,-0.29
2018-11-27T16:36:02.837Z,-0.36
2018-11-27T16:38:33.080Z,-0.36
2018-11-27T16:41:03.559Z,-0.46
2018-11-27T16:43:33.731Z,-0.41
2018-11-27T16:46:04.582Z,-0.51
2018-11-27T16:48:34.668Z,-0.43
2018-11-27T16:51:05.677Z,-0.47
2018-11-27T16:53:36.385Z,-0.38
2018-11-27T16:56:06.998Z,-0.41
2018-11-27T16:58:37.227Z,-0.57
2018-11-27T17:01:09.225Z,-0.57
2018-11-27T17:03:37.841Z,-0.57
2018-11-27T17:06:08.506Z,-0.49
2018-11-27T17:08:38.550Z,-0.57
2018-11-27T17:11:08.600Z,-0.57
2018-11-27T17:13:38.909Z,-0.54
2018-11-27T17:16:08.887Z,-0.49
2018-11-27T17:18:38.974Z,-0.50
2018-11-27T17:21:09.224Z,-0.48
2018-11-27T17:23:39.404Z,-0.48
2018-11-27T17:26:09.524Z,-0.47
2018-11-27T17:28:40.228Z,-0.49
2018-11-27T17:31:12.490Z,-0.50
2018-11-27T17:33:48.179Z,-0.40
2018-11-27T17:36:18.291Z,-0.27
2018-11-27T17:38:48.468Z,-0.14
2018-11-27T17:41:18.638Z,-0.08
2018-11-27T17:43:48.875Z,-0.12
2018-11-27T17:46:19.118Z,-0.11
2018-11-27T17:48:49.821Z,-0.23
2018-11-27T17:51:19.949Z,-0.35
2018-11-27T17:53:49.866Z,-0.31
2018-11-27T17:56:20.083Z,-0.43
2018-11-27T17:58:50.343Z,-0.45
2018-11-27T18:01:21.320Z,-0.48
2018-11-27T18:03:51.870Z,-0.57
2018-11-27T18:06:22.858Z,-0.71
2018-11-27T18:08:52.906Z,-0.66
2018-11-27T18:11:22.985Z,-0.74
2018-11-27T18:13:53.334Z,-0.78
2018-11-27T18:16:24.207Z,-0.83
2018-11-27T18:18:54.393Z,-0.89
2018-11-27T18:21:25.056Z,-0.94
2018-11-27T18:23:55.229Z,-0.91
2018-11-27T18:26:25.198Z,-1.03
2018-11-27T18:28:55.414Z,-1.17
2018-11-27T18:31:25.710Z,-1.23
2018-11-27T18:33:56.019Z,-1.32
2018-11-27T18:36:26.132Z,-1.26
2018-11-27T18:38:56.050Z,-1.33
2018-11-27T18:41:26.333Z,-1.40
2018-11-27T18:43:57.322Z,-1.38
2018-11-27T18:46:27.464Z,-1.45
2018-11-27T18:48:58.096Z,-1.50
2018-11-27T18:51:29.721Z,-1.50
2018-11-27T18:54:00.647Z,-1.58
2018-11-27T18:56:31.054Z,-1.61
2018-11-27T18:59:01.968Z,-1.69
2018-11-27T19:01:33.208Z,-1.66
2018-11-27T19:04:03.163Z,-1.69
2018-11-27T19:06:33.391Z,-1.76
2018-11-27T19:09:04.983Z,-1.82
2018-11-27T19:11:35.201Z,-1.82
2018-11-27T19:14:06.777Z,-1.88
2018-11-27T19:16:36.797Z,-1.93
2018-11-27T19:19:06.942Z,-1.95
2018-11-27T19:21:36.867Z,-1.98
2018-11-27T19:24:07.051Z,-2.06
2018-11-27T19:26:37.046Z,-2.10
2018-11-27T19:29:07.610Z,-2.10
2018-11-27T19:31:38.231Z,-2.14
2018-11-27T19:34:08.917Z,-2.15
2018-11-27T19:36:39.038Z,-2.19
2018-11-27T19:39:10.588Z,-2.22
2018-11-27T19:41:41.178Z,-2.19
2018-11-27T19:46:47.466Z,-2.26
2018-11-27T19:49:17.843Z,-2.27
2018-11-27T19:51:48.919Z,-2.22
2018-11-27T19:54:19.041Z,-2.34
2018-11-27T19:56:49.216Z,-2.36
2018-11-27T19:59:19.594Z,-2.39
2018-11-27T20:01:50.102Z,-2.38
2018-11-27T20:04:20.216Z,-2.44
2018-11-27T20:06:51.457Z,-2.45
2018-11-27T20:09:22.609Z,-2.41
2018-11-27T20:11:53.067Z,-2.40
2018-11-27T20:14:24.116Z,-2.44
2018-11-27T20:16:54.758Z,-2.43
2018-11-27T20:19:25.855Z,-2.47
2018-11-27T20:21:56.120Z,-2.46
2018-11-27T20:24:26.852Z,-2.49
2018-11-27T20:26:57.283Z,-2.51
2018-11-27T20:29:28.056Z,-2.49
2018-11-27T20:31:58.361Z,-2.51
2018-11-27T20:37:04.853Z,-2.57
2018-11-27T20:39:35.376Z,-2.59
2018-11-27T20:42:05.808Z,-2.65
2018-11-27T20:44:36.298Z,-2.63
2018-11-27T20:47:07.559Z,-2.64
2018-11-27T20:49:38.619Z,-2.67
2018-11-27T20:52:08.849Z,-2.66
2018-11-27T20:54:38.893Z,-2.77
2018-11-27T20:57:09.106Z,-2.76
2018-11-27T21:02:15.196Z,-2.78
2018-11-27T21:04:45.392Z,-2.81
2018-11-27T21:07:15.712Z,-2.76
2018-11-27T21:09:45.920Z,-2.75
2018-11-27T21:14:52.305Z,-2.76
2018-11-27T21:17:23.105Z,-2.81
2018-11-27T21:19:53.680Z,-2.77
2018-11-27T21:22:24.129Z,-2.71
2018-11-27T21:24:54.854Z,-2.76
2018-11-27T21:27:25.208Z,-2.67
2018-11-27T21:29:56.161Z,-2.66
2018-11-27T21:32:26.230Z,-2.57
2018-11-27T21:34:56.687Z,-2.60
2018-11-27T21:37:26.887Z,-2.49
2018-11-27T21:39:57.797Z,-2.43
2018-11-27T21:42:28.998Z,-2.40
2018-11-27T21:45:04.437Z,-2.38
2018-11-27T21:47:35.092Z,-2.30
2018-11-27T21:50:06.882Z,-2.28
2018-11-27T21:52:37.255Z,-2.20
2018-11-27T21:56:15.022Z,-2.14
2018-11-27T21:58:45.627Z,-2.09
2018-11-27T22:01:15.668Z,-2.08
2018-11-27T22:03:46.436Z,-2.08
2018-11-27T22:06:16.674Z,-2.02
2018-11-27T22:08:49.645Z,-2.00
2018-11-27T22:11:19.922Z,-2.02
2018-11-27T22:13:50.084Z,-2.11
2018-11-27T22:16:20.564Z,-2.11
2018-11-27T22:18:51.005Z,-2.09
2018-11-27T22:21:21.287Z,-2.20
2018-11-27T22:23:51.770Z,-2.38
2018-11-27T22:26:22.563Z,-2.38
2018-11-27T22:28:53.142Z,-2.36
2018-11-27T22:33:59.728Z,-2.22
2018-11-27T22:36:30.444Z,-2.17
2018-11-27T22:39:01.201Z,-2.15
2018-11-27T22:41:31.833Z,-2.16
2018-11-27T22:44:01.879Z,-2.12
2018-11-27T22:46:33.304Z,-2.11
2018-11-27T22:49:03.784Z,-2.08
2018-11-27T22:51:34.304Z,-2.09
2018-11-27T22:54:05.796Z,-2.07
2018-11-27T22:56:35.849Z,-2.06
2018-11-27T22:59:05.965Z,-2.05
2018-11-27T23:01:39.793Z,-2.01
2018-11-27T23:04:09.938Z,-2.02
2018-11-27T23:06:40.481Z,-2.01
2018-11-27T23:09:10.933Z,-1.99
2018-11-27T23:11:41.004Z,-1.95
2018-11-27T23:14:11.361Z,-1.92
2018-11-27T23:16:41.816Z,-1.90
2018-11-27T23:19:12.204Z,-1.86
2018-11-27T23:21:43.469Z,-1.84
2018-11-27T23:24:14.318Z,-1.83
2018-11-27T23:26:45.119Z,-1.82
2018-11-27T23:29:15.600Z,-1.83
2018-11-27T23:31:46.069Z,-1.81
2018-11-27T23:34:16.514Z,-1.77
2018-11-27T23:36:47.904Z,-1.73
2018-11-27T23:39:18.481Z,-1.78
2018-11-27T23:41:48.771Z,-1.76
2018-11-27T23:44:19.258Z,-1.71
2018-11-27T23:46:49.695Z,-1.74
2018-11-27T23:49:20.046Z,-1.77
2018-11-27T23:51:57.185Z,-1.72
2018-11-27T23:54:27.199Z,-1.83
2018-11-27T23:56:57.416Z,-1.82
2018-11-27T23:59:27.507Z,-1.72
